Orleans, California
Current Conditions -  °F | °C
As of 8:53 PM on Friday 28 Nov 2014 (Local Time) from KACV Reporting Station
Overcast Overcast  
Wind Chill: 56°   Ceiling: 5000
Heat Index: 56°   Visibility: 10mi
Dew Point: 54°   Wind: 7mph
Humidity: 93%   Direction: 150°SSE
Pressure: 29.78"   Gusts: NA
Location:  41.3°N, 123.54°W
Report Text: KACV 290453Z AUTO 15006KT 10SM FEW010 OVC050 13/12 A2978 RMK AO2 SLP088 T01330122
Loading
Personal Weather Stations






























Interactive Weather Map New forecast layout! Learn more

10-Day Weather Forecast

Advertisements
Track Severe Weather on mobile